Welcome to Des Moines Iowa Weather. I am an independent private personal weather station on the Northwest Side of Des Moines, Iowa. Just East of Windsor Heights and just West of Glendale . This site is also mobile friendly.

There are no active watches, warnings or advisories


Visit our other weather sites:

Historical Data

Weather Station Setup



Weather Underground History page Text

Daily Summary for November 16, 2017 Units:  English    Metric   Both
« Previous Day
Next Day »
Daily Weekly Monthly Yearly Custom
  High: Low: Average:
Temperature: 38.6 °F 20.7 °F 30.3 °F
Dew Point: 30.0 °F 18.0 °F 24.9 °F
Humidity: 89 % 67 % 81 %
Wind Speed: 8.0 mph 0.0 mph 1.6 mph
Wind Gust: 11.0 mph - -
Wind:- - SSE
Pressure: 30.27 in 30.00 in -
Precipitation: 0.00 in    
Historical Graphs
 
 
Tabular Data for November 16, 2017
Time Temperature Dew Point Pressure Wind Wind Speed Wind Gust Humidity Rainfall Rate (Hourly)
00:12 26.9 °F 22.0 °F 30.20 in Calm   2.0 mph 82 % 0.00 in
00:27 26.5 °F 22.0 °F 30.21 in Calm   2.0 mph 83 % 0.00 in
00:42 26.2 °F 22.0 °F 30.21 in Calm   1.0 mph 83 % 0.00 in
00:57 25.7 °F 22.0 °F 30.22 in Calm   4.0 mph 84 % 0.00 in
01:12 25.4 °F 21.0 °F 30.23 in Calm   2.0 mph 84 % 0.00 in
01:27 25.2 °F 21.0 °F 30.22 in Calm   4.0 mph 85 % 0.00 in
01:42 25.1 °F 21.0 °F 30.23 in NW 3.0 mph 3.0 mph 85 % 0.00 in
01:57 25.0 °F 21.0 °F 30.23 in North 3.0 mph 6.0 mph 85 % 0.00 in
02:12 24.9 °F 21.0 °F 30.23 in Calm   5.0 mph 85 % 0.00 in
02:27 24.8 °F 21.0 °F 30.23 in Calm   2.0 mph 85 % 0.00 in
02:42 24.7 °F 21.0 °F 30.23 in Calm   3.0 mph 85 % 0.00 in
02:57 24.5 °F 21.0 °F 30.22 in Calm   1.0 mph 85 % 0.00 in
03:13 24.2 °F 20.0 °F 30.21 in Calm   3.0 mph 85 % 0.00 in
03:27 24.0 °F 20.0 °F 30.21 in Calm   4.0 mph 86 % 0.00 in
03:42 23.9 °F 20.0 °F 30.21 in Calm   1.0 mph 86 % 0.00 in
03:57 23.8 °F 20.0 °F 30.21 in Calm   2.0 mph 86 % 0.00 in
04:13 23.7 °F 20.0 °F 30.23 in Calm   3.0 mph 86 % 0.00 in
04:28 23.6 °F 20.0 °F 30.23 in Calm     86 % 0.00 in
04:43 23.3 °F 20.0 °F 30.23 in Calm     85 % 0.00 in
04:58 23.0 °F 19.0 °F 30.24 in Calm   3.0 mph 86 % 0.00 in
05:13 22.8 °F 19.0 °F 30.24 in Calm     86 % 0.00 in
05:28 22.7 °F 19.0 °F 30.24 in Calm   2.0 mph 86 % 0.00 in
05:43 22.6 °F 19.0 °F 30.24 in Calm     86 % 0.00 in
06:13 22.1 °F 19.0 °F 30.25 in Calm     86 % 0.00 in
06:28 21.7 °F 18.0 °F 30.25 in Calm     86 % 0.00 in
06:43 21.4 °F 18.0 °F 30.25 in Calm     86 % 0.00 in
06:58 21.0 °F 18.0 °F 30.26 in Calm     86 % 0.00 in
07:13 20.8 °F 18.0 °F 30.26 in Calm     87 % 0.00 in
07:28 20.7 °F 18.0 °F 30.25 in Calm     88 % 0.00 in
07:43 20.8 °F 18.0 °F 30.26 in Calm     88 % 0.00 in
07:58 21.1 °F 18.0 °F 30.26 in Calm   2.0 mph 89 % 0.00 in
08:13 21.9 °F 19.0 °F 30.26 in Calm     89 % 0.00 in
08:28 23.1 °F 20.0 °F 30.26 in North 3.0 mph 4.0 mph 89 % 0.00 in
08:43 24.3 °F 21.0 °F 30.26 in Calm   5.0 mph 87 % 0.00 in
08:58 25.1 °F 22.0 °F 30.25 in North 1.0 mph 2.0 mph 86 % 0.00 in
09:13 25.8 °F 22.0 °F 30.26 in North 2.0 mph 4.0 mph 85 % 0.00 in
09:28 26.4 °F 22.0 °F 30.27 in North 1.0 mph 5.0 mph 83 % 0.00 in
09:43 27.2 °F 22.0 °F 30.26 in North 1.0 mph 4.0 mph 82 % 0.00 in
09:58 28.0 °F 23.0 °F 30.26 in North 4.0 mph 4.0 mph 81 % 0.00 in
10:13 28.9 °F 23.0 °F 30.27 in East 1.0 mph 3.0 mph 79 % 0.00 in
10:28 29.8 °F 24.0 °F 30.26 in Calm   6.0 mph 78 % 0.00 in
10:43 30.7 °F 24.0 °F 30.25 in SSE 4.0 mph 6.0 mph 77 % 0.00 in
10:58 31.0 °F 25.0 °F 30.25 in South 2.0 mph 7.0 mph 77 % 0.00 in
11:13 31.3 °F 25.0 °F 30.25 in ENE 1.0 mph 5.0 mph 77 % 0.00 in
11:29 31.7 °F 25.0 °F 30.24 in SSE 2.0 mph 3.0 mph 76 % 0.00 in
11:44 32.5 °F 26.0 °F 30.24 in East 1.0 mph 5.0 mph 76 % 0.00 in
11:59 33.0 °F 26.0 °F 30.23 in ENE 2.0 mph 4.0 mph 75 % 0.00 in
12:14 33.7 °F 26.0 °F 30.21 in South 2.0 mph 6.0 mph 74 % 0.00 in
12:29 34.4 °F 27.0 °F 30.21 in ESE 1.0 mph 3.0 mph 74 % 0.00 in
12:44 35.0 °F 27.0 °F 30.20 in SE 2.0 mph 4.0 mph 72 % 0.00 in
12:59 36.3 °F 27.0 °F 30.20 in SSE 6.0 mph 7.0 mph 70 % 0.00 in
13:14 37.1 °F 28.0 °F 30.18 in Calm   5.0 mph 71 % 0.00 in
13:29 37.1 °F 28.0 °F 30.18 in ENE 2.0 mph 5.0 mph 69 % 0.00 in
13:44 38.4 °F 29.0 °F 30.18 in Calm   5.0 mph 68 % 0.00 in
13:59 38.6 °F 29.0 °F 30.17 in East 1.0 mph 4.0 mph 68 % 0.00 in
14:31 38.3 °F 28.0 °F 30.16 in NE 1.0 mph 7.0 mph 67 % 0.00 in
14:45 38.5 °F 29.0 °F 30.16 in East 2.0 mph 5.0 mph 68 % 0.00 in
15:00 38.6 °F 29.0 °F 30.16 in ENE 2.0 mph 5.0 mph 68 % 0.00 in
15:15 38.4 °F 29.0 °F 30.16 in ESE 2.0 mph 4.0 mph 69 % 0.00 in
15:30 38.2 °F 29.0 °F 30.14 in SSE 2.0 mph 7.0 mph 69 % 0.00 in
15:45 38.2 °F 29.0 °F 30.14 in SSE 2.0 mph 6.0 mph 69 % 0.00 in
16:00 38.5 °F 29.0 °F 30.15 in East 2.0 mph 8.0 mph 69 % 0.00 in
16:15 38.3 °F 29.0 °F 30.14 in SSE 2.0 mph 3.0 mph 69 % 0.00 in
16:30 37.8 °F 29.0 °F 30.14 in ESE 2.0 mph 5.0 mph 70 % 0.00 in
16:45 37.4 °F 29.0 °F 30.13 in East 2.0 mph 5.0 mph 72 % 0.00 in
17:00 37.0 °F 29.0 °F 30.13 in SSE 6.0 mph 6.0 mph 73 % 0.00 in
17:30 36.1 °F 29.0 °F 30.11 in SSE 2.0 mph 9.0 mph 76 % 0.00 in
17:45 36.0 °F 29.0 °F 30.10 in SSE 4.0 mph 6.0 mph 77 % 0.00 in
18:00 35.7 °F 29.0 °F 30.10 in SE 2.0 mph 7.0 mph 77 % 0.00 in
18:15 35.3 °F 29.0 °F 30.09 in East 2.0 mph 6.0 mph 78 % 0.00 in
18:30 34.8 °F 29.0 °F 30.09 in SSE 6.0 mph 7.0 mph 80 % 0.00 in
18:45 34.5 °F 29.0 °F 30.09 in SSE 3.0 mph 10.0 mph 81 % 0.00 in
19:00 34.2 °F 29.0 °F 30.09 in ESE 4.0 mph 9.0 mph 82 % 0.00 in
19:15 34.0 °F 29.0 °F 30.09 in SE 2.0 mph 8.0 mph 82 % 0.00 in
19:30 33.9 °F 29.0 °F 30.09 in SE 1.0 mph 6.0 mph 83 % 0.00 in
19:45 33.8 °F 29.0 °F 30.08 in East 1.0 mph 5.0 mph 83 % 0.00 in
20:00 33.9 °F 29.0 °F 30.07 in SE 2.0 mph 9.0 mph 83 % 0.00 in
20:15 33.9 °F 29.0 °F 30.07 in SE 3.0 mph 5.0 mph 83 % 0.00 in
20:31 33.9 °F 29.0 °F 30.06 in SSE 2.0 mph 6.0 mph 83 % 0.00 in
20:46 33.7 °F 29.0 °F 30.05 in SSE 3.0 mph 7.0 mph 83 % 0.00 in
21:00 33.5 °F 29.0 °F 30.05 in SSE 5.0 mph 8.0 mph 84 % 0.00 in
21:22 33.5 °F 29.0 °F 30.05 in South 1.0 mph 11.0 mph 84 % 0.00 in
21:31 33.5 °F 29.0 °F 30.04 in South 7.0 mph 10.0 mph 84 % 0.00 in
21:39 33.5 °F 29.0 °F 30.04 in South 3.0 mph 9.0 mph 84 % 0.00 in
21:54 33.7 °F 29.0 °F 30.03 in South 1.0 mph 9.0 mph 84 % 0.00 in
22:09 33.7 °F 29.0 °F 30.02 in South 2.0 mph 9.0 mph 84 % 0.00 in
22:24 33.8 °F 30.0 °F 30.02 in SSW 2.0 mph 8.0 mph 84 % 0.00 in
22:39 33.7 °F 29.0 °F 30.01 in South 2.0 mph 9.0 mph 84 % 0.00 in
22:54 33.7 °F 29.0 °F 30.02 in SE 1.0 mph 7.0 mph 84 % 0.00 in
23:09 33.7 °F 29.0 °F 30.02 in South 4.0 mph 9.0 mph 84 % 0.00 in
23:24 33.9 °F 30.0 °F 30.01 in SE 3.0 mph 6.0 mph 84 % 0.00 in
23:39 34.3 °F 30.0 °F 30.01 in SE 1.0 mph 4.0 mph 84 % 0.00 in
23:54 34.6 °F 30.0 °F 30.00 in South 8.0 mph 8.0 mph 84 % 0.00 in
Des Moines Weather and Climate
Compliments of Weather Underground - 3 mb

Script developed by  Jim McMurry - jmcmurry@mwt.net Adapted for the template by  Wim van der Kuil - Leuven-Template.eu

You find our weather info also at:

Weather Underground

Equipment we use:

Weather-station
Davis VP2 Plus

Weather-program
Davis Weatherlink.Com

Weather-server
iMac (Retina 4K, 21.5-inch, Late 2015)

Provider
Hostmonster.com

Davis VP2 Plus

Davis Weatherlink.Com

iMac (Retina 4K, 21.5-inch, Late 2015)

Hostmonster.com